Time;durP1;ratioP1;P1;durP2;ratioP2;P2;SDS_P1;SDS_P2;PMS_P1;PMS_P2;Temp;Humidity;BMP_temperature;BMP_pressure;BME280_temperature;BME280_humidity;BME280_pressure;Samples;Min_cycle;Max_cycle;Signal;HPM_P1;HPM_P2
2021/12/25 00:00:10;;;;;;;4.15;2.42;;;;;;;;;;5070528;28;20525;-66
2021/12/25 00:02:35;;;;;;;4.95;2.85;;;;;;;;;;5091855;28;20465;-66
2021/12/25 00:05:01;;;;;;;7.30;3.03;;;;;;;;;;5067158;28;20020;-66
2021/12/25 00:07:26;;;;;;;4.38;2.72;;;;;;;;;;5086324;28;20040;-66
2021/12/25 00:09:51;;;;;;;5.53;2.75;;;;;;;;;;5089650;28;20020;-66
2021/12/25 00:12:17;;;;;;;4.30;2.75;;;;;;;;;;5087214;28;20024;-66
2021/12/25 00:14:42;;;;;;;4.27;2.90;;;;;;;;;;5083921;28;20049;-66
2021/12/25 00:17:07;;;;;;;5.85;3.10;;;;;;;;;;5087878;28;20372;-66
2021/12/25 00:19:32;;;;;;;5.57;2.60;;;;;;;;;;5078734;28;20054;-63
2021/12/25 00:21:59;;;;;;;3.88;2.60;;;;;;;;;;5079059;28;20048;-63
2021/12/25 00:24:25;;;;;;;5.20;2.90;;;;;;;;;;5090197;28;20016;-63
2021/12/25 00:27:00;;;;;;;6.30;2.50;;;;;;;;;;5078691;28;20029;-63
2021/12/25 00:34:34;;;;;;;5.47;2.70;;;;;;;;;;5073616;28;20038;-64
2021/12/25 00:37:00;;;;;;;5.03;3.03;;;;;;;;;;5084099;28;20461;-66
2021/12/25 00:39:28;;;;;;;5.18;2.67;;;;;;;;;;5082935;23;20041;-66
2021/12/25 00:41:53;;;;;;;4.28;2.60;;;;;;;;;;5043614;28;20078;-66
2021/12/25 00:44:19;;;;;;;4.03;2.50;;;;;;;;;;5048107;28;20021;-67
2021/12/25 00:46:44;;;;;;;4.47;2.40;;;;;;;;;;5048986;28;20024;-68
2021/12/25 00:49:09;;;;;;;6.72;3.00;;;;;;;;;;5035050;28;20034;-66
2021/12/25 00:51:34;;;;;;;4.72;2.80;;;;;;;;;;5026877;28;20020;-66
2021/12/25 00:53:59;;;;;;;3.58;2.28;;;;;;;;;;5027741;28;20424;-66
2021/12/25 00:56:25;;;;;;;4.15;2.58;;;;;;;;;;5027807;28;20060;-66
2021/12/25 00:58:50;;;;;;;5.10;2.73;;;;;;;;;;5025767;28;20029;-67
2021/12/25 01:01:15;;;;;;;3.75;2.22;;;;;;;;;;5026185;28;20740;-67
2021/12/25 01:03:40;;;;;;;8.43;3.05;;;;;;;;;;5027639;28;20033;-66
2021/12/25 01:06:05;;;;;;;3.83;2.38;;;;;;;;;;5025383;28;20033;-66
2021/12/25 01:08:31;;;;;;;2.70;2.17;;;;;;;;;;5025909;28;20072;-67
2021/12/25 01:10:56;;;;;;;3.58;2.40;;;;;;;;;;5025311;28;20377;-66
2021/12/25 01:13:27;;;;;;;6.45;2.58;;;;;;;;;;5026187;28;20025;-66
2021/12/25 01:16:16;;;;;;;3.88;2.13;;;;;;;;;;5026309;28;20533;-66
2021/12/25 01:37:15;;;;;;;4.63;2.72;;;;;;;;;;5029401;28;20135;-66
2021/12/25 01:48:01;;;;;;;5.15;2.83;;;;;;;;;;5024111;28;20088;-67
2021/12/25 01:50:27;;;;;;;4.53;2.30;;;;;;;;;;5024812;28;20414;-67
2021/12/25 01:52:53;;;;;;;4.53;2.58;;;;;;;;;;5029139;28;20029;-67
2021/12/25 01:55:20;;;;;;;4.38;3.22;;;;;;;;;;5029231;28;20113;-66
2021/12/25 01:57:45;;;;;;;4.05;2.88;;;;;;;;;;5025050;28;20029;-66
2021/12/25 02:00:14;;;;;;;10.85;3.42;;;;;;;;;;5029179;28;20032;-66
2021/12/25 02:02:39;;;;;;;5.10;3.08;;;;;;;;;;5025863;28;20017;-66
2021/12/25 02:05:04;;;;;;;4.50;2.30;;;;;;;;;;5029592;28;20021;-67
2021/12/25 02:07:30;;;;;;;5.15;3.05;;;;;;;;;;5028655;28;20510;-66
2021/12/25 02:09:55;;;;;;;3.97;2.65;;;;;;;;;;5028942;28;20045;-66
2021/12/25 02:12:21;;;;;;;6.03;2.97;;;;;;;;;;5028251;28;20021;-67
2021/12/25 02:14:47;;;;;;;3.63;2.22;;;;;;;;;;5029145;28;20290;-67
2021/12/25 02:17:20;;;;;;;4.40;2.45;;;;;;;;;;5027892;28;20034;-66
2021/12/25 02:19:55;;;;;;;4.53;2.63;;;;;;;;;;5029998;28;20501;-66
2021/12/25 02:22:23;;;;;;;4.32;2.55;;;;;;;;;;5023119;28;20402;-66
2021/12/25 02:24:49;;;;;;;3.75;2.60;;;;;;;;;;5009937;28;20018;-66
2021/12/25 02:27:14;;;;;;;4.07;2.60;;;;;;;;;;5021864;28;20032;-66
2021/12/25 02:29:39;;;;;;;4.53;2.60;;;;;;;;;;5031935;28;20264;-66
2021/12/25 02:32:06;;;;;;;4.50;2.85;;;;;;;;;;5030152;28;20036;-66
2021/12/25 02:34:31;;;;;;;3.47;2.30;;;;;;;;;;5017617;28;20065;-66
2021/12/25 02:36:56;;;;;;;3.60;2.35;;;;;;;;;;5030569;28;20547;-66
2021/12/25 02:39:21;;;;;;;3.95;2.42;;;;;;;;;;5031036;28;20112;-66
2021/12/25 02:41:47;;;;;;;5.38;2.55;;;;;;;;;;5032155;28;20103;-66
2021/12/25 02:44:12;;;;;;;4.25;2.88;;;;;;;;;;5032603;28;20428;-66
2021/12/25 02:46:37;;;;;;;5.38;3.15;;;;;;;;;;5028035;28;20025;-67
2021/12/25 02:49:02;;;;;;;6.28;3.15;;;;;;;;;;5012677;28;20104;-66
2021/12/25 02:51:28;;;;;;;6.35;3.05;;;;;;;;;;5031196;28;20072;-66
2021/12/25 02:53:53;;;;;;;5.38;3.50;;;;;;;;;;5032334;28;20124;-66
2021/12/25 02:56:18;;;;;;;5.50;3.35;;;;;;;;;;5031441;28;20349;-68
2021/12/25 02:58:44;;;;;;;5.18;3.38;;;;;;;;;;5032089;28;20025;-66
2021/12/25 03:01:13;;;;;;;11.23;3.58;;;;;;;;;;5031265;28;20028;-66
2021/12/25 03:03:39;;;;;;;5.03;3.20;;;;;;;;;;5032067;28;20579;-67
2021/12/25 03:06:05;;;;;;;4.75;3.00;;;;;;;;;;5031011;28;20033;-66
2021/12/25 03:08:31;;;;;;;5.60;3.47;;;;;;;;;;5032100;28;20060;-66
2021/12/25 03:10:56;;;;;;;5.85;3.70;;;;;;;;;;5026386;28;20017;-66
2021/12/25 03:13:41;;;;;;;6.53;4.28;;;;;;;;;;5030411;28;20026;-66
2021/12/25 03:16:07;;;;;;;5.90;3.65;;;;;;;;;;5013487;28;20394;-66
2021/12/25 03:18:38;;;;;;;5.22;3.35;;;;;;;;;;5030746;28;20029;-66
2021/12/25 03:21:04;;;;;;;5.82;3.63;;;;;;;;;;5030552;28;20105;-67
2021/12/25 03:23:31;;;;;;;5.85;4.10;;;;;;;;;;5031434;28;20362;-67
2021/12/25 03:25:57;;;;;;;7.22;3.65;;;;;;;;;;5030902;28;20032;-66
2021/12/25 03:28:23;;;;;;;6.95;4.32;;;;;;;;;;5031067;28;20033;-66
2021/12/25 03:30:49;;;;;;;6.97;4.68;;;;;;;;;;5022562;28;20219;-66
2021/12/25 03:33:15;;;;;;;8.77;5.05;;;;;;;;;;5028889;28;20393;-67
2021/12/25 03:35:41;;;;;;;10.80;4.57;;;;;;;;;;5031096;28;20107;-67
2021/12/25 03:38:07;;;;;;;7.25;4.60;;;;;;;;;;5029773;28;20499;-66
2021/12/25 03:40:33;;;;;;;8.55;4.70;;;;;;;;;;5025643;28;21311;-66
2021/12/25 03:42:59;;;;;;;9.15;5.32;;;;;;;;;;5030798;28;20505;-67
2021/12/25 03:45:27;;;;;;;10.80;5.68;;;;;;;;;;5026834;28;20360;-66
2021/12/25 03:48:03;;;;;;;8.73;5.35;;;;;;;;;;5029068;28;20378;-67
2021/12/25 03:53:26;;;;;;;7.82;4.72;;;;;;;;;;5023125;28;20088;-66
2021/12/25 03:58:35;;;;;;;9.52;5.28;;;;;;;;;;5030471;28;20032;-66
2021/12/25 04:01:13;;;;;;;10.63;5.32;;;;;;;;;;5030565;28;20026;-66
2021/12/25 04:03:48;;;;;;;8.25;4.90;;;;;;;;;;5030817;28;20024;-66
2021/12/25 04:06:14;;;;;;;9.25;5.80;;;;;;;;;;5031280;28;20028;-66
2021/12/25 04:08:45;;;;;;;10.18;5.88;;;;;;;;;;5029917;28;20104;-67
2021/12/25 04:11:26;;;;;;;9.98;5.93;;;;;;;;;;5030094;28;20021;-66
2021/12/25 04:13:51;;;;;;;;;;;;;;;;;;5028344;28;20386;-66
2021/12/25 04:16:16;;;;;;;9.50;5.78;;;;;;;;;;5030737;28;20273;-67
2021/12/25 04:18:41;;;;;;;10.13;6.35;;;;;;;;;;5030673;28;20032;-66
2021/12/25 04:21:06;;;;;;;11.30;6.83;;;;;;;;;;5012776;28;20017;-66
2021/12/25 04:23:32;;;;;;;10.60;6.47;;;;;;;;;;5029938;28;20691;-66
2021/12/25 04:25:59;;;;;;;12.95;6.82;;;;;;;;;;5022141;28;20072;-66
2021/12/25 04:28:43;;;;;;;14.80;7.78;;;;;;;;;;5030137;28;20104;-65
2021/12/25 04:42:47;;;;;;;13.43;7.15;;;;;;;;;;5025378;28;20489;-66
2021/12/25 05:04:06;;;;;;;14.65;7.82;;;;;;;;;;5027490;28;20033;-67
2021/12/25 05:06:31;;;;;;;16.30;7.53;;;;;;;;;;5029018;28;20064;-66
2021/12/25 05:08:57;;;;;;;16.35;7.93;;;;;;;;;;5029198;28;20030;-66
2021/12/25 05:11:22;;;;;;;14.77;7.50;;;;;;;;;;5029383;28;20014;-65
2021/12/25 05:13:49;;;;;;;16.13;8.48;;;;;;;;;;5029120;28;20565;-65
2021/12/25 05:16:15;;;;;;;14.52;7.43;;;;;;;;;;5029939;28;20021;-66
2021/12/25 05:18:41;;;;;;;15.00;8.00;;;;;;;;;;5027926;28;20040;-67
2021/12/25 05:21:07;;;;;;;13.68;7.43;;;;;;;;;;5029485;28;20021;-67
2021/12/25 05:23:32;;;;;;;13.88;7.60;;;;;;;;;;5029173;28;20067;-66
2021/12/25 05:25:58;;;;;;;15.85;7.82;;;;;;;;;;5028793;28;20048;-66
2021/12/25 05:28:27;;;;;;;13.65;7.68;;;;;;;;;;5029735;28;20083;-66
2021/12/25 05:30:53;;;;;;;14.70;7.40;;;;;;;;;;5029408;28;20033;-66
2021/12/25 05:33:19;;;;;;;18.92;7.57;;;;;;;;;;5028419;28;20457;-66
2021/12/25 05:35:44;;;;;;;15.20;7.88;;;;;;;;;;5029861;28;20033;-67
2021/12/25 05:38:14;;;;;;;15.30;7.63;;;;;;;;;;5023425;28;20237;-66
2021/12/25 05:40:39;;;;;;;15.48;8.45;;;;;;;;;;5019248;28;20025;-66
2021/12/25 05:43:04;;;;;;;14.55;7.68;;;;;;;;;;5028542;28;20030;-67
2021/12/25 05:45:30;;;;;;;21.10;7.83;;;;;;;;;;5028881;28;20025;-66
2021/12/25 05:47:55;;;;;;;16.13;7.75;;;;;;;;;;5029168;28;20260;-66
2021/12/25 05:50:20;;;;;;;14.77;7.90;;;;;;;;;;5028683;28;20087;-66
2021/12/25 05:52:45;;;;;;;17.73;8.88;;;;;;;;;;5029235;28;20264;-66
2021/12/25 05:55:11;;;;;;;14.80;7.38;;;;;;;;;;5023636;28;20036;-67
2021/12/25 05:57:36;;;;;;;16.88;9.00;;;;;;;;;;5029617;28;20091;-66
2021/12/25 06:00:02;;;;;;;19.17;8.27;;;;;;;;;;5028073;28;20028;-66
2021/12/25 06:02:27;;;;;;;15.25;7.05;;;;;;;;;;5029143;28;20065;-66
2021/12/25 06:04:52;;;;;;;14.18;8.43;;;;;;;;;;5031977;28;20356;-66
2021/12/25 06:07:17;;;;;;;13.93;7.77;;;;;;;;;;5033447;28;20040;-66
2021/12/25 06:09:42;;;;;;;14.47;7.53;;;;;;;;;;5032315;28;20343;-66
2021/12/25 06:12:10;;;;;;;14.88;7.25;;;;;;;;;;5031877;28;20260;-66
2021/12/25 06:14:35;;;;;;;13.32;6.82;;;;;;;;;;5032362;28;20489;-66
2021/12/25 06:17:01;;;;;;;14.65;8.23;;;;;;;;;;5033066;28;20060;-66
2021/12/25 06:19:26;;;;;;;16.70;7.82;;;;;;;;;;5026740;28;20104;-66
2021/12/25 06:21:51;;;;;;;15.00;6.82;;;;;;;;;;5032672;28;20059;-66
2021/12/25 06:24:16;;;;;;;14.97;8.80;;;;;;;;;;5032201;28;20122;-66
2021/12/25 06:26:42;;;;;;;13.88;6.80;;;;;;;;;;5033170;28;20260;-66
2021/12/25 06:29:07;;;;;;;16.40;8.60;;;;;;;;;;5030919;28;20466;-66
2021/12/25 06:31:32;;;;;;;15.60;8.30;;;;;;;;;;5025467;28;20045;-66
2021/12/25 06:33:58;;;;;;;16.42;8.90;;;;;;;;;;5030898;28;20039;-66
2021/12/25 06:36:24;;;;;;;15.00;8.40;;;;;;;;;;5011942;28;20084;-66
2021/12/25 06:38:49;;;;;;;14.50;8.40;;;;;;;;;;5017084;28;20021;-66
2021/12/25 06:41:14;;;;;;;15.60;8.50;;;;;;;;;;5079542;22;20048;-63
2021/12/25 06:43:40;;;;;;;13.70;7.50;;;;;;;;;;5030328;28;20021;-63
2021/12/25 06:46:05;;;;;;;14.52;8.13;;;;;;;;;;5032833;28;20634;-63
2021/12/25 06:48:31;;;;;;;14.80;7.95;;;;;;;;;;5032924;28;20021;-63
2021/12/25 06:50:56;;;;;;;15.45;8.45;;;;;;;;;;5030658;28;20025;-63
2021/12/25 06:53:21;;;;;;;17.25;8.73;;;;;;;;;;5032859;28;20018;-63
2021/12/25 06:55:47;;;;;;;17.45;9.25;;;;;;;;;;5031772;28;20029;-63
2021/12/25 06:58:12;;;;;;;14.75;8.10;;;;;;;;;;5032459;28;20032;-63
2021/12/25 07:00:37;;;;;;;15.30;8.95;;;;;;;;;;5029663;28;20025;-63
2021/12/25 07:03:03;;;;;;;15.65;8.18;;;;;;;;;;5032148;28;20428;-63
2021/12/25 07:05:28;;;;;;;15.60;8.52;;;;;;;;;;5030494;28;20017;-63
2021/12/25 07:07:53;;;;;;;16.42;9.82;;;;;;;;;;5032058;28;20021;-63
2021/12/25 07:10:19;;;;;;;12.75;7.70;;;;;;;;;;5030199;28;20521;-63
2021/12/25 07:12:47;;;;;;;15.55;8.45;;;;;;;;;;5032189;28;20108;-63
2021/12/25 07:15:12;;;;;;;15.50;8.82;;;;;;;;;;5031041;28;20028;-63
2021/12/25 07:17:38;;;;;;;16.48;7.70;;;;;;;;;;5029712;28;20037;-63
2021/12/25 07:20:03;;;;;;;14.75;8.05;;;;;;;;;;5028350;28;20390;-63
2021/12/25 07:22:28;;;;;;;14.93;8.00;;;;;;;;;;5031899;28;20021;-64
2021/12/25 07:24:53;;;;;;;14.02;8.13;;;;;;;;;;5031397;28;20032;-63
2021/12/25 07:27:19;;;;;;;14.85;8.05;;;;;;;;;;5032034;28;20055;-63
2021/12/25 07:29:44;;;;;;;13.45;7.70;;;;;;;;;;5031295;28;20029;-63
2021/12/25 07:32:09;;;;;;;13.30;7.43;;;;;;;;;;5031136;28;20108;-63
2021/12/25 07:34:36;;;;;;;15.75;8.32;;;;;;;;;;5031268;28;20021;-64
2021/12/25 07:37:01;;;;;;;12.93;6.97;;;;;;;;;;5030929;28;20026;-64
2021/12/25 07:39:26;;;;;;;13.10;7.28;;;;;;;;;;5030979;28;20021;-64
2021/12/25 07:41:51;;;;;;;16.10;7.43;;;;;;;;;;5031594;28;20071;-64
2021/12/25 07:44:17;;;;;;;14.15;7.60;;;;;;;;;;5031015;28;20260;-64
2021/12/25 07:46:44;;;;;;;14.25;7.57;;;;;;;;;;5031546;28;20039;-64
2021/12/25 07:49:15;;;;;;;13.02;6.72;;;;;;;;;;5031348;28;21931;-64
2021/12/25 07:51:41;;;;;;;18.00;7.85;;;;;;;;;;5031230;28;20620;-64
2021/12/25 07:54:06;;;;;;;14.60;7.82;;;;;;;;;;5026436;28;20076;-64
2021/12/25 07:56:31;;;;;;;14.00;7.22;;;;;;;;;;5031416;28;20025;-64
2021/12/25 07:58:56;;;;;;;13.40;8.23;;;;;;;;;;5031129;28;20033;-64
2021/12/25 08:01:22;;;;;;;13.23;7.68;;;;;;;;;;5030942;28;20268;-64
2021/12/25 08:03:47;;;;;;;10.90;6.07;;;;;;;;;;5028351;28;20032;-64
2021/12/25 08:06:12;;;;;;;11.27;6.63;;;;;;;;;;5028150;28;20018;-64
2021/12/25 08:08:37;;;;;;;11.77;6.85;;;;;;;;;;5026961;28;20032;-64
2021/12/25 08:11:02;;;;;;;12.52;6.88;;;;;;;;;;5030728;28;20477;-64
2021/12/25 08:13:28;;;;;;;10.98;6.45;;;;;;;;;;5030548;28;20021;-64
2021/12/25 08:15:53;;;;;;;9.70;5.97;;;;;;;;;;5030712;28;20021;-64
2021/12/25 08:18:18;;;;;;;12.52;6.68;;;;;;;;;;5030122;28;20399;-64
2021/12/25 08:20:43;;;;;;;12.20;6.38;;;;;;;;;;5030675;28;20474;-64
2021/12/25 08:23:08;;;;;;;10.23;5.38;;;;;;;;;;5030651;28;20018;-64
2021/12/25 08:25:34;;;;;;;10.07;5.72;;;;;;;;;;5029810;28;20474;-64
2021/12/25 08:27:59;;;;;;;10.30;5.97;;;;;;;;;;5030299;28;20091;-64
2021/12/25 08:30:26;;;;;;;10.38;6.15;;;;;;;;;;5023296;28;20397;-64
2021/12/25 08:32:55;;;;;;;11.70;6.55;;;;;;;;;;5026601;28;20044;-64
2021/12/25 08:35:20;;;;;;;10.02;5.82;;;;;;;;;;5029943;28;20100;-64
2021/12/25 08:37:46;;;;;;;10.00;5.90;;;;;;;;;;5029929;28;20112;-64
2021/12/25 08:40:12;;;;;;;11.35;6.25;;;;;;;;;;5028042;28;20029;-64
2021/12/25 08:42:37;;;;;;;9.43;5.63;;;;;;;;;;5030707;28;20017;-64
2021/12/25 08:47:37;;;;;;;11.85;6.57;;;;;;;;;;5029900;28;20026;-65
2021/12/25 08:50:07;;;;;;;11.00;6.80;;;;;;;;;;5027680;28;20060;-66
2021/12/25 08:52:32;;;;;;;8.13;4.68;;;;;;;;;;5027408;28;20056;-66
2021/12/25 08:54:57;;;;;;;11.55;5.57;;;;;;;;;;5029753;28;20071;-66
2021/12/25 08:57:22;;;;;;;10.07;6.40;;;;;;;;;;5031339;28;20047;-66
2021/12/25 08:59:51;;;;;;;7.55;4.78;;;;;;;;;;5039238;28;20525;-66
2021/12/25 09:02:17;;;;;;;11.00;6.18;;;;;;;;;;5029454;28;20517;-66
2021/12/25 09:04:44;;;;;;;9.85;5.50;;;;;;;;;;5030340;28;20036;-66
2021/12/25 09:07:10;;;;;;;8.52;5.07;;;;;;;;;;5027656;28;20021;-66
2021/12/25 09:09:35;;;;;;;8.68;5.43;;;;;;;;;;5027117;28;20048;-66
2021/12/25 09:12:00;;;;;;;9.52;5.57;;;;;;;;;;5025762;28;20103;-66
2021/12/25 09:14:26;;;;;;;10.85;5.57;;;;;;;;;;5027725;28;20100;-66
2021/12/25 09:16:51;;;;;;;8.13;5.18;;;;;;;;;;5023590;28;20470;-66
2021/12/25 09:19:17;;;;;;;9.18;5.32;;;;;;;;;;5011476;28;20059;-66
2021/12/25 09:21:42;;;;;;;7.95;4.75;;;;;;;;;;5024284;28;20021;-66
2021/12/25 09:24:07;;;;;;;6.57;3.90;;;;;;;;;;5029504;28;20656;-65
2021/12/25 09:26:33;;;;;;;6.93;4.30;;;;;;;;;;5025404;28;20104;-65
2021/12/25 09:28:58;;;;;;;6.53;3.22;;;;;;;;;;5033392;28;20061;-65
2021/12/25 09:31:23;;;;;;;8.13;5.20;;;;;;;;;;5033149;28;20389;-65
2021/12/25 09:33:49;;;;;;;7.88;4.38;;;;;;;;;;5038934;28;20036;-66
2021/12/25 09:36:14;;;;;;;7.28;4.43;;;;;;;;;;5028437;28;20091;-66
2021/12/25 09:38:40;;;;;;;7.28;4.57;;;;;;;;;;5013339;28;20665;-64
2021/12/25 09:41:05;;;;;;;8.07;4.45;;;;;;;;;;5031311;28;20039;-64
2021/12/25 09:43:30;;;;;;;7.43;4.38;;;;;;;;;;5033897;28;20048;-64
2021/12/25 09:45:56;;;;;;;5.85;3.50;;;;;;;;;;5032486;28;20025;-64
2021/12/25 09:48:22;;;;;;;8.32;3.90;;;;;;;;;;5029309;28;20064;-64
2021/12/25 09:50:47;;;;;;;8.35;4.55;;;;;;;;;;5032839;28;20029;-64
2021/12/25 09:53:15;;;;;;;8.98;4.70;;;;;;;;;;5032186;28;20131;-65
2021/12/25 09:55:40;;;;;;;6.03;3.63;;;;;;;;;;5032897;28;20033;-65
2021/12/25 09:58:06;;;;;;;6.70;3.42;;;;;;;;;;5033247;28;20030;-64
2021/12/25 10:00:33;;;;;;;6.68;3.72;;;;;;;;;;5032187;28;20478;-64
2021/12/25 10:02:58;;;;;;;5.85;3.78;;;;;;;;;;5032325;28;20021;-64
2021/12/25 10:05:24;;;;;;;6.75;4.00;;;;;;;;;;5032703;28;20026;-64
2021/12/25 10:07:59;;;;;;;9.90;4.15;;;;;;;;;;5028764;28;20022;-64
2021/12/25 10:10:24;;;;;;;5.78;3.75;;;;;;;;;;5032796;28;20036;-64
2021/12/25 10:12:50;;;;;;;5.22;3.35;;;;;;;;;;5032462;28;20025;-65
2021/12/25 10:15:15;;;;;;;5.20;3.40;;;;;;;;;;5032779;28;20684;-65
2021/12/25 10:17:45;;;;;;;4.53;3.10;;;;;;;;;;5028998;28;20029;-65
2021/12/25 10:20:12;;;;;;;6.93;3.83;;;;;;;;;;5017002;28;20118;-65
2021/12/25 10:22:52;;;;;;;6.45;3.58;;;;;;;;;;5032128;28;20024;-65
2021/12/25 10:25:17;;;;;;;4.05;2.80;;;;;;;;;;5030738;28;20022;-65
2021/12/25 10:27:56;;;;;;;5.65;3.30;;;;;;;;;;5032632;28;20025;-64
2021/12/25 10:30:22;;;;;;;5.47;3.40;;;;;;;;;;5027490;28;20363;-64
2021/12/25 10:32:48;;;;;;;5.40;3.08;;;;;;;;;;5032076;28;20033;-64
2021/12/25 10:35:18;;;;;;;4.70;3.03;;;;;;;;;;5029799;28;20072;-65
2021/12/25 10:37:43;;;;;;;6.10;3.15;;;;;;;;;;5027459;28;20018;-64
2021/12/25 10:40:25;;;;;;;4.65;3.22;;;;;;;;;;5034772;28;20032;-64
2021/12/25 10:42:51;;;;;;;6.20;3.22;;;;;;;;;;5032212;28;20436;-64
2021/12/25 10:45:17;;;;;;;3.75;2.40;;;;;;;;;;5028068;28;20052;-64
2021/12/25 10:47:42;;;;;;;4.40;2.88;;;;;;;;;;5027439;28;20048;-65
2021/12/25 10:50:11;;;;;;;4.25;2.90;;;;;;;;;;5024869;28;20627;-65
2021/12/25 10:52:41;;;;;;;5.18;3.25;;;;;;;;;;5032240;28;20389;-65
2021/12/25 10:55:12;;;;;;;5.20;2.80;;;;;;;;;;5028092;28;20595;-65
2021/12/25 10:57:42;;;;;;;4.65;3.25;;;;;;;;;;5017440;28;20479;-65
2021/12/25 11:00:09;;;;;;;6.35;2.97;;;;;;;;;;5027564;28;20017;-65
2021/12/25 11:02:36;;;;;;;7.35;3.50;;;;;;;;;;5010073;28;20070;-65
2021/12/25 11:05:14;;;;;;;3.15;2.33;;;;;;;;;;5019094;28;20044;-65
2021/12/25 11:07:39;;;;;;;5.68;2.53;;;;;;;;;;5027709;28;20021;-66
2021/12/25 11:10:06;;;;;;;6.18;2.97;;;;;;;;;;5026019;28;20021;-65
2021/12/25 11:12:33;;;;;;;5.82;2.97;;;;;;;;;;5018107;28;20098;-65
2021/12/25 11:15:08;;;;;;;4.40;2.47;;;;;;;;;;5023805;28;20105;-65
2021/12/25 11:17:37;;;;;;;3.15;2.40;;;;;;;;;;5018927;28;20369;-65
2021/12/25 11:20:03;;;;;;;3.63;2.15;;;;;;;;;;5029356;28;20032;-65
2021/12/25 11:22:48;;;;;;;3.88;2.55;;;;;;;;;;5039753;28;20023;-66
2021/12/25 11:25:14;;;;;;;3.13;2.33;;;;;;;;;;5031036;28;20033;-65
2021/12/25 11:27:39;;;;;;;3.53;2.05;;;;;;;;;;5030693;28;20017;-65
2021/12/25 11:30:05;;;;;;;2.83;2.28;;;;;;;;;;5030165;28;20067;-65
2021/12/25 11:32:31;;;;;;;3.28;2.15;;;;;;;;;;5030307;28;20032;-66
2021/12/25 11:34:58;;;;;;;2.60;1.93;;;;;;;;;;5026191;28;20025;-66
2021/12/25 11:37:24;;;;;;;3.08;2.13;;;;;;;;;;5035509;28;20825;-66
2021/12/25 11:39:52;;;;;;;4.78;2.95;;;;;;;;;;5022798;28;20032;-67
2021/12/25 11:42:17;;;;;;;3.17;1.63;;;;;;;;;;5022503;28;20021;-68
2021/12/25 11:44:50;;;;;;;3.13;1.88;;;;;;;;;;5027947;28;20017;-66
2021/12/25 11:47:27;;;;;;;3.47;1.80;;;;;;;;;;5025704;28;20409;-67
2021/12/25 11:49:53;;;;;;;2.60;1.75;;;;;;;;;;5019628;28;20449;-67
2021/12/25 11:52:19;;;;;;;2.90;1.52;;;;;;;;;;5029105;28;20021;-67
2021/12/25 11:57:46;;;;;;;3.42;1.90;;;;;;;;;;5027476;28;20109;-65
2021/12/25 12:00:12;;;;;;;1.70;1.33;;;;;;;;;;5030045;28;20021;-65
2021/12/25 12:02:41;;;;;;;1.98;1.10;;;;;;;;;;5030618;28;20025;-64
2021/12/25 12:05:25;;;;;;;2.28;1.20;;;;;;;;;;5031572;28;20024;-65
2021/12/25 12:07:56;;;;;;;2.10;1.15;;;;;;;;;;5031236;28;20132;-64
2021/12/25 12:10:41;;;;;;;2.15;1.45;;;;;;;;;;5031367;28;20032;-65
2021/12/25 12:13:20;;;;;;;2.17;1.27;;;;;;;;;;5031650;28;20029;-65
2021/12/25 12:15:46;;;;;;;2.53;1.30;;;;;;;;;;5024121;28;20074;-65
2021/12/25 12:18:41;;;;;;;1.83;1.10;;;;;;;;;;5031680;28;20425;-65
2021/12/25 12:21:33;;;;;;;1.95;1.08;;;;;;;;;;5017884;28;20029;-64
2021/12/25 12:26:49;;;;;;;2.00;1.23;;;;;;;;;;5030961;28;20087;-65
2021/12/25 12:29:15;;;;;;;2.22;1.35;;;;;;;;;;5028617;28;20501;-64
2021/12/25 12:31:42;;;;;;;2.53;1.17;;;;;;;;;;5030162;28;20017;-64
2021/12/25 12:34:26;;;;;;;1.60;1.00;;;;;;;;;;5030410;28;20456;-64
2021/12/25 12:36:51;;;;;;;2.85;1.58;;;;;;;;;;5030521;28;20091;-64
2021/12/25 12:39:18;;;;;;;1.40;1.10;;;;;;;;;;5029866;28;20466;-64
2021/12/25 12:41:51;;;;;;;2.03;1.38;;;;;;;;;;5029582;28;20104;-67
2021/12/25 12:44:24;;;;;;;2.25;1.42;;;;;;;;;;5030160;28;20308;-67
2021/12/25 12:46:53;;;;;;;2.90;0.93;;;;;;;;;;5027592;28;20025;-67
2021/12/25 12:49:19;;;;;;;2.17;1.40;;;;;;;;;;5030262;28;20053;-67
2021/12/25 12:51:44;;;;;;;1.95;1.20;;;;;;;;;;5029945;28;20135;-67
2021/12/25 12:54:09;;;;;;;2.38;1.40;;;;;;;;;;5029939;28;20021;-65
2021/12/25 12:56:36;;;;;;;0.82;0.77;;;;;;;;;;5029990;28;20437;-64
2021/12/25 12:59:02;;;;;;;1.85;1.38;;;;;;;;;;5029794;28;20109;-64
2021/12/25 13:01:27;;;;;;;3.17;1.85;;;;;;;;;;5029484;28;20018;-64
2021/12/25 13:04:03;;;;;;;2.38;1.58;;;;;;;;;;5030006;28;20028;-64
2021/12/25 13:06:29;;;;;;;2.22;1.52;;;;;;;;;;5030168;28;20018;-66
2021/12/25 13:08:55;;;;;;;3.85;1.50;;;;;;;;;;5029414;28;20060;-66
2021/12/25 13:11:28;;;;;;;2.13;1.40;;;;;;;;;;5029550;28;20025;-65
2021/12/25 13:14:03;;;;;;;2.65;1.88;;;;;;;;;;5029952;28;20640;-65
2021/12/25 13:16:36;;;;;;;2.30;1.40;;;;;;;;;;5026059;28;20040;-65
2021/12/25 13:19:05;;;;;;;2.42;1.50;;;;;;;;;;5009908;28;20529;-65
2021/12/25 13:21:31;;;;;;;2.72;1.70;;;;;;;;;;5009935;28;20093;-65
2021/12/25 13:23:58;;;;;;;4.63;1.48;;;;;;;;;;5019502;28;20032;-65
2021/12/25 13:26:32;;;;;;;3.03;1.60;;;;;;;;;;5029780;28;20052;-66
2021/12/25 13:28:57;;;;;;;4.28;2.30;;;;;;;;;;5029955;28;20413;-66
2021/12/25 13:31:24;;;;;;;3.22;1.67;;;;;;;;;;5029547;28;20026;-66
2021/12/25 13:33:51;;;;;;;3.03;1.50;;;;;;;;;;5029550;28;20083;-66
2021/12/25 13:36:17;;;;;;;4.22;1.55;;;;;;;;;;5029715;28;20508;-66
2021/12/25 13:38:58;;;;;;;2.58;1.92;;;;;;;;;;5028994;28;20025;-66
2021/12/25 13:41:34;;;;;;;1.80;1.27;;;;;;;;;;5029403;28;20021;-66
2021/12/25 13:44:19;;;;;;;2.78;1.65;;;;;;;;;;5029580;28;20659;-65
2021/12/25 13:46:49;;;;;;;6.18;1.38;;;;;;;;;;5029745;28;20018;-65
2021/12/25 13:49:33;;;;;;;2.72;1.55;;;;;;;;;;5011872;28;20115;-65
2021/12/25 13:52:01;;;;;;;2.00;1.38;;;;;;;;;;5028967;28;20389;-65
2021/12/25 13:54:26;;;;;;;3.00;1.80;;;;;;;;;;5029252;28;20025;-65
2021/12/25 13:56:53;;;;;;;1.35;1.00;;;;;;;;;;5029286;28;20026;-65
2021/12/25 13:59:18;;;;;;;1.80;1.25;;;;;;;;;;5029380;28;20055;-66
2021/12/25 14:01:44;;;;;;;2.55;1.55;;;;;;;;;;5029479;28;20049;-66
2021/12/25 14:04:10;;;;;;;6.05;2.00;;;;;;;;;;5029363;28;20107;-66
2021/12/25 14:06:36;;;;;;;4.93;1.50;;;;;;;;;;5029162;28;20009;-66
2021/12/25 14:09:02;;;;;;;2.40;1.55;;;;;;;;;;5029119;28;20150;-66
2021/12/25 14:11:28;;;;;;;2.97;1.63;;;;;;;;;;5028610;28;20026;-66
2021/12/25 14:13:54;;;;;;;4.18;1.60;;;;;;;;;;5029038;28;20087;-65
2021/12/25 14:16:19;;;;;;;1.90;1.17;;;;;;;;;;5029608;28;20013;-65
2021/12/25 14:18:44;;;;;;;3.60;1.85;;;;;;;;;;5029306;28;20084;-65
2021/12/25 14:21:13;;;;;;;6.53;1.80;;;;;;;;;;5028913;28;20025;-65
2021/12/25 14:23:39;;;;;;;3.83;1.90;;;;;;;;;;5029057;28;20010;-65
2021/12/25 14:26:04;;;;;;;3.03;1.33;;;;;;;;;;5029181;28;20076;-65
2021/12/25 14:28:29;;;;;;;3.03;1.50;;;;;;;;;;5013166;28;20061;-65
2021/12/25 14:30:57;;;;;;;2.08;1.38;;;;;;;;;;5012651;28;20018;-65
2021/12/25 14:33:22;;;;;;;2.38;1.60;;;;;;;;;;5013061;28;20322;-65
2021/12/25 14:35:48;;;;;;;2.30;1.50;;;;;;;;;;5013010;28;20025;-65
2021/12/25 14:38:13;;;;;;;3.05;1.50;;;;;;;;;;5015638;28;20049;-65
2021/12/25 14:40:45;;;;;;;0.77;0.77;;;;;;;;;;5031927;28;20026;-65
2021/12/25 14:43:11;;;;;;;3.13;1.35;;;;;;;;;;5032230;28;20060;-65
2021/12/25 14:45:54;;;;;;;2.03;1.33;;;;;;;;;;5032682;28;20117;-65
2021/12/25 14:48:30;;;;;;;3.38;1.40;;;;;;;;;;5032543;28;20490;-65
2021/12/25 14:50:57;;;;;;;1.13;0.80;;;;;;;;;;5031891;28;20014;-65
2021/12/25 14:53:22;;;;;;;1.48;0.63;;;;;;;;;;5031409;28;20021;-65
2021/12/25 14:55:52;;;;;;;1.73;1.20;;;;;;;;;;5032092;28;20666;-65
2021/12/25 14:58:20;;;;;;;1.65;0.90;;;;;;;;;;5032097;28;20022;-65
2021/12/25 15:00:46;;;;;;;3.25;1.33;;;;;;;;;;5032065;28;20087;-65
2021/12/25 15:03:13;;;;;;;2.03;1.10;;;;;;;;;;5030521;28;20021;-65
2021/12/25 15:05:39;;;;;;;1.60;1.00;;;;;;;;;;5028301;28;20025;-64
2021/12/25 15:08:36;;;;;;;4.70;1.10;;;;;;;;;;5021466;28;20029;-65
2021/12/25 15:11:22;;;;;;;2.15;1.40;;;;;;;;;;4990187;23;20179;-70
2021/12/25 15:13:58;;;;;;;1.90;1.25;;;;;;;;;;5025681;28;20042;-70
2021/12/25 15:16:33;;;;;;;1.45;1.20;;;;;;;;;;5023833;28;21672;-71
2021/12/25 15:18:58;;;;;;;3.30;1.60;;;;;;;;;;5024550;28;20029;-71
2021/12/25 15:21:23;;;;;;;2.35;1.50;;;;;;;;;;5027444;28;20033;-72
2021/12/25 15:24:06;;;;;;;3.17;1.67;;;;;;;;;;5014265;28;20020;-68
2021/12/25 15:26:37;;;;;;;1.38;0.90;;;;;;;;;;5020459;28;20643;-70
2021/12/25 15:29:03;;;;;;;1.42;1.00;;;;;;;;;;5028226;28;20056;-71
2021/12/25 15:31:28;;;;;;;3.05;1.80;;;;;;;;;;5032444;28;20099;-72
2021/12/25 15:33:59;;;;;;;2.45;1.33;;;;;;;;;;5032164;28;20381;-71
2021/12/25 15:36:25;;;;;;;2.95;1.75;;;;;;;;;;5029696;28;20056;-69
2021/12/25 15:38:51;;;;;;;3.92;1.70;;;;;;;;;;5033588;28;20025;-72
2021/12/25 15:41:17;;;;;;;2.63;1.50;;;;;;;;;;5043592;28;20024;-69
2021/12/25 15:43:42;;;;;;;1.10;0.85;;;;;;;;;;5030949;28;20369;-69
2021/12/25 15:46:08;;;;;;;3.40;1.67;;;;;;;;;;5026954;28;20544;-69
2021/12/25 15:48:34;;;;;;;2.83;1.50;;;;;;;;;;5029319;28;20028;-69
2021/12/25 15:50:59;;;;;;;2.00;1.33;;;;;;;;;;5028634;28;20029;-70
2021/12/25 15:53:25;;;;;;;2.42;1.38;;;;;;;;;;5020474;28;20032;-70
2021/12/25 15:55:50;;;;;;;2.88;1.40;;;;;;;;;;5027737;28;20022;-71